sensor_id;sensor_type;location;lat;lon;timestamp;pressure;altitude;pressure_sealevel;temperature;humidity
64192;BME280;50497;50.720;-2.084;2023-05-20T00:00:31;103697.31;;;10.25;100.00
64192;BME280;50497;50.720;-2.084;2023-05-20T00:02:56;103733.94;;;10.42;100.00
64192;BME280;50497;50.720;-2.084;2023-05-20T00:05:24;103738.38;;;10.35;100.00
64192;BME280;50497;50.720;-2.084;2023-05-20T00:07:49;103710.66;;;10.17;100.00
64192;BME280;50497;50.720;-2.084;2023-05-20T00:10:15;103719.59;;;10.18;100.00
64192;BME280;50497;50.720;-2.084;2023-05-20T00:12:40;103716.91;;;10.15;100.00
64192;BME280;50497;50.720;-2.084;2023-05-20T00:15:06;103721.38;;;10.14;100.00
64192;BME280;50497;50.720;-2.084;2023-05-20T00:17:32;103714.19;;;10.06;100.00
64192;BME280;50497;50.720;-2.084;2023-05-20T00:19:57;103744.56;;;10.18;100.00
64192;BME280;50497;50.720;-2.084;2023-05-20T00:22:24;103730.25;;;10.04;100.00
64192;BME280;50497;50.720;-2.084;2023-05-20T00:24:49;103757.03;;;10.10;100.00
64192;BME280;50497;50.720;-2.084;2023-05-20T00:27:15;103757.00;;;10.07;100.00
64192;BME280;50497;50.720;-2.084;2023-05-20T00:29:40;103741.81;;;9.97;100.00
64192;BME280;50497;50.720;-2.084;2023-05-20T00:32:05;103741.81;;;9.86;100.00
64192;BME280;50497;50.720;-2.084;2023-05-20T00:34:31;103774.81;;;10.01;100.00
64192;BME280;50497;50.720;-2.084;2023-05-20T00:36:56;103748.91;;;9.79;100.00
64192;BME280;50497;50.720;-2.084;2023-05-20T00:39:22;103779.25;;;9.91;100.00
64192;BME280;50497;50.720;-2.084;2023-05-20T00:41:47;103765.81;;;9.75;100.00
64192;BME280;50497;50.720;-2.084;2023-05-20T00:44:12;103778.31;;;9.78;100.00
64192;BME280;50497;50.720;-2.084;2023-05-20T00:46:38;103766.69;;;9.68;100.00
64192;BME280;50497;50.720;-2.084;2023-05-20T00:49:03;103785.44;;;9.80;100.00
64192;BME280;50497;50.720;-2.084;2023-05-20T00:51:29;103788.09;;;9.79;100.00
64192;BME280;50497;50.720;-2.084;2023-05-20T00:53:55;103796.13;;;9.79;100.00
64192;BME280;50497;50.720;-2.084;2023-05-20T00:56:21;103749.66;;;9.52;100.00
64192;BME280;50497;50.720;-2.084;2023-05-20T00:58:48;103781.81;;;9.68;100.00
64192;BME280;50497;50.720;-2.084;2023-05-20T01:01:13;103785.38;;;9.64;100.00
64192;BME280;50497;50.720;-2.084;2023-05-20T01:03:39;103788.88;;;9.59;100.00
64192;BME280;50497;50.720;-2.084;2023-05-20T01:06:05;103767.44;;;9.46;100.00
64192;BME280;50497;50.720;-2.084;2023-05-20T01:08:30;103787.97;;;9.53;100.00
64192;BME280;50497;50.720;-2.084;2023-05-20T01:11:06;103764.72;;;9.39;100.00
64192;BME280;50497;50.720;-2.084;2023-05-20T01:13:38;103785.31;;;9.51;100.00
64192;BME280;50497;50.720;-2.084;2023-05-20T01:16:07;103776.34;;;9.48;100.00
64192;BME280;50497;50.720;-2.084;2023-05-20T01:18:35;103778.06;;;9.38;100.00
64192;BME280;50497;50.720;-2.084;2023-05-20T01:21:01;103779.84;;;9.37;100.00
64192;BME280;50497;50.720;-2.084;2023-05-20T01:23:36;103782.50;;;9.34;100.00
64192;BME280;50497;50.720;-2.084;2023-05-20T01:26:03;103776.28;;;9.34;100.00
64192;BME280;50497;50.720;-2.084;2023-05-20T01:28:30;103754.81;;;9.17;100.00
64192;BME280;50497;50.720;-2.084;2023-05-20T01:30:57;103783.41;;;9.33;100.00
64192;BME280;50497;50.720;-2.084;2023-05-20T01:33:24;103778.91;;;9.29;100.00
64192;BME280;50497;50.720;-2.084;2023-05-20T01:35:52;103786.94;;;9.31;100.00
64192;BME280;50497;50.720;-2.084;2023-05-20T01:38:18;103768.13;;;9.14;100.00
64192;BME280;50497;50.720;-2.084;2023-05-20T01:40:45;103794.06;;;9.27;100.00
64192;BME280;50497;50.720;-2.084;2023-05-20T01:43:11;103801.19;;;9.28;100.00
64192;BME280;50497;50.720;-2.084;2023-05-20T01:45:36;103769.88;;;9.09;100.00
64192;BME280;50497;50.720;-2.084;2023-05-20T01:48:04;103748.56;;;9.21;100.00
64192;BME280;50497;50.720;-2.084;2023-05-20T01:50:29;103727.19;;;9.18;100.00
64192;BME280;50497;50.720;-2.084;2023-05-20T01:52:55;103724.53;;;9.15;100.00
64192;BME280;50497;50.720;-2.084;2023-05-20T01:55:20;103693.22;;;8.95;100.00
64192;BME280;50497;50.720;-2.084;2023-05-20T01:57:45;103716.44;;;9.05;100.00
64192;BME280;50497;50.720;-2.084;2023-05-20T02:00:11;103717.28;;;9.00;100.00
64192;BME280;50497;50.720;-2.084;2023-05-20T02:02:37;103712.81;;;8.96;100.00
64192;BME280;50497;50.720;-2.084;2023-05-20T02:05:02;103715.47;;;8.94;100.00
64192;BME280;50497;50.720;-2.084;2023-05-20T02:07:28;103691.28;;;8.73;100.00
64192;BME280;50497;50.720;-2.084;2023-05-20T02:09:53;103686.78;;;8.65;100.00
64192;BME280;50497;50.720;-2.084;2023-05-20T02:12:18;103701.94;;;8.73;100.00
64192;BME280;50497;50.720;-2.084;2023-05-20T02:14:45;103704.63;;;8.74;100.00
64192;BME280;50497;50.720;-2.084;2023-05-20T02:17:12;103711.75;;;8.72;100.00
64192;BME280;50497;50.720;-2.084;2023-05-20T02:19:41;103714.41;;;8.71;100.00
64192;BME280;50497;50.720;-2.084;2023-05-20T02:22:06;103695.59;;;8.57;100.00
64192;BME280;50497;50.720;-2.084;2023-05-20T02:24:32;103710.84;;;8.70;100.00
64192;BME280;50497;50.720;-2.084;2023-05-20T02:26:58;103696.53;;;8.60;100.00
64192;BME280;50497;50.720;-2.084;2023-05-20T02:29:24;103696.41;;;8.48;100.00
64192;BME280;50497;50.720;-2.084;2023-05-20T02:31:50;103709.72;;;8.43;100.00
64192;BME280;50497;50.720;-2.084;2023-05-20T02:34:19;103737.34;;;8.53;100.00
64192;BME280;50497;50.720;-2.084;2023-05-20T02:36:45;103732.88;;;8.49;100.00
64192;BME280;50497;50.720;-2.084;2023-05-20T02:39:10;103734.66;;;8.47;100.00
64192;BME280;50497;50.720;-2.084;2023-05-20T02:41:37;103740.91;;;8.49;100.00
64192;BME280;50497;50.720;-2.084;2023-05-20T02:44:02;103736.44;;;8.48;100.00
64192;BME280;50497;50.720;-2.084;2023-05-20T02:46:27;103735.50;;;8.43;100.00
64192;BME280;50497;50.720;-2.084;2023-05-20T02:48:53;103707.78;;;8.28;100.00
64192;BME280;50497;50.720;-2.084;2023-05-20T02:51:18;103715.78;;;8.33;100.00
64192;BME280;50497;50.720;-2.084;2023-05-20T02:53:43;103701.44;;;8.19;100.00
64192;BME280;50497;50.720;-2.084;2023-05-20T02:56:10;103723.75;;;8.30;100.00
64192;BME280;50497;50.720;-2.084;2023-05-20T02:58:35;103702.25;;;8.11;100.00
64192;BME280;50497;50.720;-2.084;2023-05-20T03:01:01;103719.25;;;8.21;100.00
64192;BME280;50497;50.720;-2.084;2023-05-20T03:03:27;103703.09;;;8.06;100.00
64192;BME280;50497;50.720;-2.084;2023-05-20T03:05:53;103730.78;;;8.17;100.00
64192;BME280;50497;50.720;-2.084;2023-05-20T03:08:20;103704.06;;;8.14;100.00
64192;BME280;50497;50.720;-2.084;2023-05-20T03:10:46;103719.25;;;8.21;100.00
64192;BME280;50497;50.720;-2.084;2023-05-20T03:13:11;103694.19;;;8.05;100.00
64192;BME280;50497;50.720;-2.084;2023-05-20T03:15:37;103727.28;;;8.26;100.00
64192;BME280;50497;50.720;-2.084;2023-05-20T03:18:03;103704.78;;;7.99;100.00
64192;BME280;50497;50.720;-2.084;2023-05-20T03:20:29;103709.34;;;8.09;100.00
64192;BME280;50497;50.720;-2.084;2023-05-20T03:22:57;103711.06;;;8.04;100.00
64192;BME280;50497;50.720;-2.084;2023-05-20T03:25:23;103698.69;;;8.11;100.00
64192;BME280;50497;50.720;-2.084;2023-05-20T03:27:49;103695.97;;;8.06;100.00
64192;BME280;50497;50.720;-2.084;2023-05-20T03:30:14;103694.19;;;8.04;100.00
64192;BME280;50497;50.720;-2.084;2023-05-20T03:32:40;103670.88;;;7.86;100.00
64192;BME280;50497;50.720;-2.084;2023-05-20T03:35:06;103677.97;;;7.87;100.00
64192;BME280;50497;50.720;-2.084;2023-05-20T03:37:32;103685.09;;;7.86;100.00
64192;BME280;50497;50.720;-2.084;2023-05-20T03:39:58;103669.03;;;7.80;100.00
64192;BME280;50497;50.720;-2.084;2023-05-20T03:42:23;103668.97;;;7.74;100.00
64192;BME280;50497;50.720;-2.084;2023-05-20T03:44:48;103633.31;;;7.63;100.00
64192;BME280;50497;50.720;-2.084;2023-05-20T03:47:14;103618.94;;;7.50;100.00
64192;BME280;50497;50.720;-2.084;2023-05-20T03:49:39;103643.09;;;7.65;100.00
64192;BME280;50497;50.720;-2.084;2023-05-20T03:52:06;103634.09;;;7.52;100.00
64192;BME280;50497;50.720;-2.084;2023-05-20T03:54:31;103601.97;;;7.42;100.00
64192;BME280;50497;50.720;-2.084;2023-05-20T03:56:57;103627.94;;;7.59;100.00
64192;BME280;50497;50.720;-2.084;2023-05-20T03:59:22;103624.31;;;7.54;100.00
64192;BME280;50497;50.720;-2.084;2023-05-20T04:01:47;103596.63;;;7.40;100.00
64192;BME280;50497;50.720;-2.084;2023-05-20T04:04:13;103608.19;;;7.44;100.00
64192;BME280;50497;50.720;-2.084;2023-05-20T04:06:38;103593.91;;;7.34;100.00
64192;BME280;50497;50.720;-2.084;2023-05-20T04:09:05;103604.56;;;7.34;100.00
64192;BME280;50497;50.720;-2.084;2023-05-20T04:11:30;103618.84;;;7.39;100.00
64192;BME280;50497;50.720;-2.084;2023-05-20T04:13:55;103582.19;;;7.19;100.00
64192;BME280;50497;50.720;-2.084;2023-05-20T04:16:22;103618.81;;;7.37;100.00
64192;BME280;50497;50.720;-2.084;2023-05-20T04:18:47;103577.69;;;7.15;100.00
64192;BME280;50497;50.720;-2.084;2023-05-20T04:21:13;103590.22;;;7.22;100.00
64192;BME280;50497;50.720;-2.084;2023-05-20T04:23:39;103594.63;;;7.22;100.00
64192;BME280;50497;50.720;-2.084;2023-05-20T04:26:04;103604.41;;;7.21;100.00
64192;BME280;50497;50.720;-2.084;2023-05-20T04:28:29;103591.06;;;7.20;100.00
64192;BME280;50497;50.720;-2.084;2023-05-20T04:30:59;103586.56;;;7.14;100.00
64192;BME280;50497;50.720;-2.084;2023-05-20T04:33:25;103559.72;;;6.96;100.00
64192;BME280;50497;50.720;-2.084;2023-05-20T04:35:51;103564.16;;;6.98;100.00
64192;BME280;50497;50.720;-2.084;2023-05-20T04:38:16;103589.25;;;7.16;100.00
64192;BME280;50497;50.720;-2.084;2023-05-20T04:40:42;103593.66;;;7.15;100.00
64192;BME280;50497;50.720;-2.084;2023-05-20T04:43:07;103502.06;;;6.98;100.00
64192;BME280;50497;50.720;-2.084;2023-05-20T04:45:33;103523.50;;;7.12;100.00
64192;BME280;50497;50.720;-2.084;2023-05-20T04:47:59;103518.16;;;7.10;100.00
64192;BME280;50497;50.720;-2.084;2023-05-20T04:50:25;103491.44;;;7.01;100.00
64192;BME280;50497;50.720;-2.084;2023-05-20T04:52:51;103487.94;;;7.05;100.00
64192;BME280;50497;50.720;-2.084;2023-05-20T04:55:16;103488.91;;;7.13;100.00
64192;BME280;50497;50.720;-2.084;2023-05-20T04:57:42;103505.94;;;7.28;100.00
64192;BME280;50497;50.720;-2.084;2023-05-20T05:00:09;103494.41;;;7.29;100.00
64192;BME280;50497;50.720;-2.084;2023-05-20T05:02:35;103480.03;;;7.11;100.00
64192;BME280;50497;50.720;-2.084;2023-05-20T05:05:01;103481.88;;;7.18;100.00
64192;BME280;50497;50.720;-2.084;2023-05-20T05:07:26;103502.47;;;7.35;100.00
64192;BME280;50497;50.720;-2.084;2023-05-20T05:09:51;103498.00;;;7.31;100.00
64192;BME280;50497;50.720;-2.084;2023-05-20T05:12:17;103495.34;;;7.32;100.00
64192;BME280;50497;50.720;-2.084;2023-05-20T05:14:42;103495.41;;;7.40;100.00
64192;BME280;50497;50.720;-2.084;2023-05-20T05:17:07;103460.53;;;7.15;100.00
64192;BME280;50497;50.720;-2.084;2023-05-20T05:19:33;103455.31;;;7.25;100.00
64192;BME280;50497;50.720;-2.084;2023-05-20T05:21:58;103490.16;;;7.46;100.00
64192;BME280;50497;50.720;-2.084;2023-05-20T05:24:24;103469.66;;;7.37;100.00
64192;BME280;50497;50.720;-2.084;2023-05-20T05:26:55;103457.09;;;7.29;100.00
64192;BME280;50497;50.720;-2.084;2023-05-20T05:29:20;103482.13;;;7.45;100.00
64192;BME280;50497;50.720;-2.084;2023-05-20T05:31:46;103466.06;;;7.37;100.00
64192;BME280;50497;50.720;-2.084;2023-05-20T05:34:11;103479.59;;;7.60;100.00
64192;BME280;50497;50.720;-2.084;2023-05-20T05:36:38;103487.56;;;7.57;100.00
64192;BME280;50497;50.720;-2.084;2023-05-20T05:39:04;103492.94;;;7.62;100.00
64192;BME280;50497;50.720;-2.084;2023-05-20T05:41:29;103483.22;;;7.67;100.00
64192;BME280;50497;50.720;-2.084;2023-05-20T05:43:55;103472.53;;;7.62;100.00
64192;BME280;50497;50.720;-2.084;2023-05-20T05:46:20;103449.34;;;7.53;100.00
64192;BME280;50497;50.720;-2.084;2023-05-20T05:48:46;103484.16;;;7.70;100.00
64192;BME280;50497;50.720;-2.084;2023-05-20T05:51:13;103489.47;;;7.72;100.00
64192;BME280;50497;50.720;-2.084;2023-05-20T05:53:39;103451.19;;;7.57;100.00
64192;BME280;50497;50.720;-2.084;2023-05-20T05:56:05;103485.09;;;7.80;100.00
64192;BME280;50497;50.720;-2.084;2023-05-20T05:58:30;103454.84;;;7.69;100.00
64192;BME280;50497;50.720;-2.084;2023-05-20T06:00:57;103493.19;;;7.89;100.00
64192;BME280;50497;50.720;-2.084;2023-05-20T06:03:22;103468.22;;;7.80;100.00
64192;BME280;50497;50.720;-2.084;2023-05-20T06:05:48;103476.34;;;7.92;100.00
64192;BME280;50497;50.720;-2.084;2023-05-20T06:08:13;103539.00;;;8.53;100.00
64192;BME280;50497;50.720;-2.084;2023-05-20T06:10:38;103583.78;;;9.07;100.00
64192;BME280;50497;50.720;-2.084;2023-05-20T06:13:04;103602.50;;;9.09;100.00
64192;BME280;50497;50.720;-2.084;2023-05-20T06:15:29;103592.78;;;9.27;100.00
64192;BME280;50497;50.720;-2.084;2023-05-20T06:17:55;103559.84;;;9.32;100.00
64192;BME280;50497;50.720;-2.084;2023-05-20T06:20:20;103537.56;;;9.30;100.00
64192;BME280;50497;50.720;-2.084;2023-05-20T06:22:46;103539.41;;;9.62;100.00
64192;BME280;50497;50.720;-2.084;2023-05-20T06:25:11;103503.75;;;10.09;100.00
64192;BME280;50497;50.720;-2.084;2023-05-20T06:27:37;103445.81;;;10.11;100.00
64192;BME280;50497;50.720;-2.084;2023-05-20T06:30:03;103368.31;;;9.82;100.00
64192;BME280;50497;50.720;-2.084;2023-05-20T06:32:28;103330.63;;;10.48;100.00
64192;BME280;50497;50.720;-2.084;2023-05-20T06:34:54;103255.69;;;10.51;100.00
64192;BME280;50497;50.720;-2.084;2023-05-20T06:37:19;103168.28;;;11.37;100.00
64192;BME280;50497;50.720;-2.084;2023-05-20T06:39:45;103118.75;;;11.66;100.00
64192;BME280;50497;50.720;-2.084;2023-05-20T06:42:12;103025.00;;;11.58;100.00
64192;BME280;50497;50.720;-2.084;2023-05-20T06:44:37;103001.75;;;11.60;100.00
64192;BME280;50497;50.720;-2.084;2023-05-20T06:47:02;102975.44;;;11.26;100.00
64192;BME280;50497;50.720;-2.084;2023-05-20T06:49:28;102964.78;;;11.81;100.00
64192;BME280;50497;50.720;-2.084;2023-05-20T06:51:53;102947.47;;;12.00;100.00
64192;BME280;50497;50.720;-2.084;2023-05-20T06:54:19;103004.63;;;12.54;100.00
64192;BME280;50497;50.720;-2.084;2023-05-20T06:56:44;103014.94;;;13.18;100.00
64192;BME280;50497;50.720;-2.084;2023-05-20T06:59:09;103105.69;;;13.05;100.00
64192;BME280;50497;50.720;-2.084;2023-05-20T07:01:35;103164.03;;;12.98;100.00
64192;BME280;50497;50.720;-2.084;2023-05-20T07:04:00;103218.47;;;11.99;100.00
64192;BME280;50497;50.720;-2.084;2023-05-20T07:06:26;103223.41;;;12.84;100.00
64192;BME280;50497;50.720;-2.084;2023-05-20T07:08:51;103262.56;;;12.99;100.00
64192;BME280;50497;50.720;-2.084;2023-05-20T07:11:16;103286.22;;;13.31;100.00
64192;BME280;50497;50.720;-2.084;2023-05-20T07:13:42;103303.72;;;13.56;100.00
64192;BME280;50497;50.720;-2.084;2023-05-20T07:16:07;103309.09;;;13.03;100.00
64192;BME280;50497;50.720;-2.084;2023-05-20T07:18:32;103340.84;;;13.35;100.00
64192;BME280;50497;50.720;-2.084;2023-05-20T07:20:58;103328.53;;;14.15;100.00
64192;BME280;50497;50.720;-2.084;2023-05-20T07:23:23;103370.88;;;13.60;100.00
64192;BME280;50497;50.720;-2.084;2023-05-20T07:25:49;103365.84;;;13.90;100.00
64192;BME280;50497;50.720;-2.084;2023-05-20T07:28:15;103367.19;;;14.13;100.00
64192;BME280;50497;50.720;-2.084;2023-05-20T07:30:40;103441.03;;;14.46;100.00
64192;BME280;50497;50.720;-2.084;2023-05-20T07:33:06;103465.59;;;14.74;100.00
64192;BME280;50497;50.720;-2.084;2023-05-20T07:35:31;103516.63;;;15.24;100.00
64192;BME280;50497;50.720;-2.084;2023-05-20T07:37:57;103552.31;;;15.36;100.00
64192;BME280;50497;50.720;-2.084;2023-05-20T07:40:22;103546.66;;;15.48;100.00
64192;BME280;50497;50.720;-2.084;2023-05-20T07:42:48;103572.38;;;14.80;100.00
64192;BME280;50497;50.720;-2.084;2023-05-20T07:45:13;103613.25;;;15.86;100.00
64192;BME280;50497;50.720;-2.084;2023-05-20T07:47:38;103595.13;;;15.92;100.00
64192;BME280;50497;50.720;-2.084;2023-05-20T07:50:04;103628.06;;;15.67;100.00
64192;BME280;50497;50.720;-2.084;2023-05-20T07:52:30;103601.66;;;15.83;100.00
64192;BME280;50497;50.720;-2.084;2023-05-20T07:54:55;103618.06;;;16.11;100.00
64192;BME280;50497;50.720;-2.084;2023-05-20T07:57:20;103657.34;;;15.87;100.00
64192;BME280;50497;50.720;-2.084;2023-05-20T07:59:46;103642.91;;;16.60;100.00
64192;BME280;50497;50.720;-2.084;2023-05-20T08:02:11;103660.13;;;15.84;100.00
64192;BME280;50497;50.720;-2.084;2023-05-20T08:04:36;103606.75;;;16.31;100.00
64192;BME280;50497;50.720;-2.084;2023-05-20T08:07:02;103638.72;;;17.47;100.00
64192;BME280;50497;50.720;-2.084;2023-05-20T08:09:28;103674.97;;;16.02;100.00
64192;BME280;50497;50.720;-2.084;2023-05-20T08:11:54;103667.19;;;17.60;100.00
64192;BME280;50497;50.720;-2.084;2023-05-20T08:14:19;103458.16;;;16.62;100.00
64192;BME280;50497;50.720;-2.084;2023-05-20T08:16:45;103405.06;;;16.60;100.00
64192;BME280;50497;50.720;-2.084;2023-05-20T08:19:11;103384.66;;;17.61;100.00
64192;BME280;50497;50.720;-2.084;2023-05-20T08:21:36;103346.44;;;18.67;100.00
64192;BME280;50497;50.720;-2.084;2023-05-20T08:24:03;103297.75;;;18.41;100.00
64192;BME280;50497;50.720;-2.084;2023-05-20T08:26:28;103194.91;;;17.92;100.00
64192;BME280;50497;50.720;-2.084;2023-05-20T08:28:54;103187.75;;;17.91;100.00
64192;BME280;50497;50.720;-2.084;2023-05-20T08:31:19;103119.41;;;18.50;100.00
64192;BME280;50497;50.720;-2.084;2023-05-20T08:33:45;103098.94;;;17.76;100.00
64192;BME280;50497;50.720;-2.084;2023-05-20T08:36:10;103136.06;;;19.04;100.00
64192;BME280;50497;50.720;-2.084;2023-05-20T08:38:36;103055.31;;;17.62;100.00
64192;BME280;50497;50.720;-2.084;2023-05-20T08:41:01;103189.75;;;18.31;100.00
64192;BME280;50497;50.720;-2.084;2023-05-20T08:43:26;103213.28;;;18.74;100.00
64192;BME280;50497;50.720;-2.084;2023-05-20T08:45:52;103033.41;;;18.94;100.00
64192;BME280;50497;50.720;-2.084;2023-05-20T08:48:21;102567.00;;;19.41;100.00
64192;BME280;50497;50.720;-2.084;2023-05-20T08:50:50;102088.16;;;18.71;100.00
64192;BME280;50497;50.720;-2.084;2023-05-20T08:53:17;102084.47;;;19.60;100.00
64192;BME280;50497;50.720;-2.084;2023-05-20T08:55:45;102119.97;;;20.27;100.00
64192;BME280;50497;50.720;-2.084;2023-05-20T08:58:14;102194.34;;;20.54;100.00
64192;BME280;50497;50.720;-2.084;2023-05-20T09:00:40;102215.97;;;19.26;100.00
64192;BME280;50497;50.720;-2.084;2023-05-20T09:03:06;102170.41;;;20.31;100.00
64192;BME280;50497;50.720;-2.084;2023-05-20T09:05:33;101927.56;;;19.38;100.00
64192;BME280;50497;50.720;-2.084;2023-05-20T09:08:09;101639.53;;;20.07;100.00
64192;BME280;50497;50.720;-2.084;2023-05-20T09:10:36;101658.47;;;19.18;100.00
64192;BME280;50497;50.720;-2.084;2023-05-20T09:13:02;101569.22;;;20.39;100.00
64192;BME280;50497;50.720;-2.084;2023-05-20T09:15:29;101593.03;;;20.60;100.00
64192;BME280;50497;50.720;-2.084;2023-05-20T09:18:01;101591.34;;;20.94;100.00
64192;BME280;50497;50.720;-2.084;2023-05-20T09:20:27;101645.22;;;20.65;100.00
64192;BME280;50497;50.720;-2.084;2023-05-20T09:22:58;101637.91;;;20.41;100.00
64192;BME280;50497;50.720;-2.084;2023-05-20T09:25:23;101567.41;;;19.53;100.00
64192;BME280;50497;50.720;-2.084;2023-05-20T09:27:49;101534.28;;;20.46;100.00
64192;BME280;50497;50.720;-2.084;2023-05-20T09:30:18;101533.50;;;21.37;100.00
64192;BME280;50497;50.720;-2.084;2023-05-20T09:32:44;101552.22;;;20.73;100.00
64192;BME280;50497;50.720;-2.084;2023-05-20T09:35:13;101576.25;;;21.01;100.00
64192;BME280;50497;50.720;-2.084;2023-05-20T09:37:41;101532.09;;;20.51;100.00
64192;BME280;50497;50.720;-2.084;2023-05-20T09:40:07;101571.78;;;20.54;100.00
64192;BME280;50497;50.720;-2.084;2023-05-20T09:42:46;101513.09;;;21.09;100.00
64192;BME280;50497;50.720;-2.084;2023-05-20T09:45:12;101510.34;;;21.88;100.00
64192;BME280;50497;50.720;-2.084;2023-05-20T09:47:37;101535.97;;;21.40;100.00
64192;BME280;50497;50.720;-2.084;2023-05-20T09:50:07;101605.97;;;20.69;100.00
64192;BME280;50497;50.720;-2.084;2023-05-20T09:52:36;101591.28;;;20.83;100.00
64192;BME280;50497;50.720;-2.084;2023-05-20T09:55:04;101613.47;;;21.01;100.00
64192;BME280;50497;50.720;-2.084;2023-05-20T09:57:36;101614.75;;;21.19;100.00
64192;BME280;50497;50.720;-2.084;2023-05-20T10:00:03;101519.63;;;20.60;100.00
64192;BME280;50497;50.720;-2.084;2023-05-20T10:02:30;101492.91;;;20.42;100.00
64192;BME280;50497;50.720;-2.084;2023-05-20T10:04:55;101471.72;;;21.83;100.00
64192;BME280;50497;50.720;-2.084;2023-05-20T10:20:11;101541.09;;;22.97;100.00
64192;BME280;50497;50.720;-2.084;2023-05-20T10:22:37;101696.28;;;23.34;100.00
64192;BME280;50497;50.720;-2.084;2023-05-20T10:25:05;101819.97;;;22.23;100.00
64192;BME280;50497;50.720;-2.084;2023-05-20T10:27:42;101785.06;;;22.40;100.00
64192;BME280;50497;50.720;-2.084;2023-05-20T10:30:15;101835.72;;;22.20;100.00
64192;BME280;50497;50.720;-2.084;2023-05-20T10:32:48;102037.53;;;23.00;100.00
64192;BME280;50497;50.720;-2.084;2023-05-20T10:35:20;101846.66;;;22.42;100.00
64192;BME280;50497;50.720;-2.084;2023-05-20T10:37:46;102118.78;;;23.43;100.00
64192;BME280;50497;50.720;-2.084;2023-05-20T10:40:14;102335.00;;;23.61;100.00
64192;BME280;50497;50.720;-2.084;2023-05-20T10:42:40;102207.25;;;23.88;100.00
64192;BME280;50497;50.720;-2.084;2023-05-20T10:45:07;102260.31;;;22.66;100.00
64192;BME280;50497;50.720;-2.084;2023-05-20T10:47:34;102307.34;;;22.69;100.00
64192;BME280;50497;50.720;-2.084;2023-05-20T10:49:59;102301.63;;;23.69;100.00
64192;BME280;50497;50.720;-2.084;2023-05-20T10:52:35;102301.41;;;22.39;100.00
64192;BME280;50497;50.720;-2.084;2023-05-20T10:55:01;102226.72;;;22.28;100.00
64192;BME280;50497;50.720;-2.084;2023-05-20T10:57:28;102286.69;;;22.78;100.00
64192;BME280;50497;50.720;-2.084;2023-05-20T10:59:54;102267.63;;;22.65;100.00
64192;BME280;50497;50.720;-2.084;2023-05-20T11:02:20;102284.94;;;23.01;100.00
64192;BME280;50497;50.720;-2.084;2023-05-20T11:04:51;102342.72;;;24.14;100.00
64192;BME280;50497;50.720;-2.084;2023-05-20T11:07:24;102352.88;;;22.05;100.00
64192;BME280;50497;50.720;-2.084;2023-05-20T11:09:50;102361.69;;;21.15;100.00
64192;BME280;50497;50.720;-2.084;2023-05-20T11:12:16;102343.25;;;23.13;100.00
64192;BME280;50497;50.720;-2.084;2023-05-20T11:14:41;102324.19;;;24.07;100.00
64192;BME280;50497;50.720;-2.084;2023-05-20T11:17:06;102295.59;;;23.17;100.00
64192;BME280;50497;50.720;-2.084;2023-05-20T11:19:32;102343.31;;;23.36;100.00
64192;BME280;50497;50.720;-2.084;2023-05-20T11:21:57;102310.22;;;23.76;100.00
64192;BME280;50497;50.720;-2.084;2023-05-20T11:24:26;102350.59;;;22.87;100.00
64192;BME280;50497;50.720;-2.084;2023-05-20T11:26:53;102339.31;;;23.88;100.00
64192;BME280;50497;50.720;-2.084;2023-05-20T11:29:19;102337.03;;;25.29;100.00
64192;BME280;50497;50.720;-2.084;2023-05-20T11:31:47;102366.16;;;22.09;100.00
64192;BME280;50497;50.720;-2.084;2023-05-20T11:34:13;102301.44;;;22.13;100.00
64192;BME280;50497;50.720;-2.084;2023-05-20T11:36:42;102350.50;;;22.88;100.00
64192;BME280;50497;50.720;-2.084;2023-05-20T11:39:09;102351.94;;;24.47;96.88
64192;BME280;50497;50.720;-2.084;2023-05-20T11:41:36;102346.59;;;24.80;97.37
64192;BME280;50497;50.720;-2.084;2023-05-20T11:44:01;102356.56;;;22.68;100.00
64192;BME280;50497;50.720;-2.084;2023-05-20T11:46:27;102289.78;;;20.63;100.00
64192;BME280;50497;50.720;-2.084;2023-05-20T11:48:56;102292.47;;;22.74;100.00
64192;BME280;50497;50.720;-2.084;2023-05-20T11:51:28;102338.25;;;22.94;100.00
64192;BME280;50497;50.720;-2.084;2023-05-20T11:54:00;102343.16;;;22.65;100.00
64192;BME280;50497;50.720;-2.084;2023-05-20T11:56:33;102347.06;;;22.61;100.00
64192;BME280;50497;50.720;-2.084;2023-05-20T11:59:02;102353.88;;;22.42;100.00
64192;BME280;50497;50.720;-2.084;2023-05-20T12:01:32;102311.56;;;22.74;100.00
64192;BME280;50497;50.720;-2.084;2023-05-20T12:03:58;102322.56;;;21.96;100.00
64192;BME280;50497;50.720;-2.084;2023-05-20T12:06:24;102340.09;;;22.69;100.00
64192;BME280;50497;50.720;-2.084;2023-05-20T12:08:49;102297.22;;;22.59;100.00
64192;BME280;50497;50.720;-2.084;2023-05-20T12:11:15;102341.56;;;22.37;100.00
64192;BME280;50497;50.720;-2.084;2023-05-20T12:13:40;102333.19;;;21.61;100.00
64192;BME280;50497;50.720;-2.084;2023-05-20T12:16:05;102313.81;;;21.26;100.00
64192;BME280;50497;50.720;-2.084;2023-05-20T12:18:31;102322.63;;;22.59;100.00
64192;BME280;50497;50.720;-2.084;2023-05-20T12:20:57;102333.63;;;23.08;100.00
64192;BME280;50497;50.720;-2.084;2023-05-20T12:23:23;102331.78;;;24.03;96.02
64192;BME280;50497;50.720;-2.084;2023-05-20T12:25:48;102289.66;;;24.62;82.61
64192;BME280;50497;50.720;-2.084;2023-05-20T12:28:14;102292.69;;;23.78;90.16
64192;BME280;50497;50.720;-2.084;2023-05-20T12:30:41;102328.69;;;22.00;94.51
64192;BME280;50497;50.720;-2.084;2023-05-20T12:33:06;102326.81;;;22.26;97.78
64192;BME280;50497;50.720;-2.084;2023-05-20T12:35:38;102328.13;;;22.46;97.10
64192;BME280;50497;50.720;-2.084;2023-05-20T12:38:05;102309.72;;;23.11;92.99
64192;BME280;50497;50.720;-2.084;2023-05-20T12:40:31;102314.88;;;23.98;92.76
64192;BME280;50497;50.720;-2.084;2023-05-20T12:42:56;102309.94;;;22.71;94.94